Time;durP1;ratioP1;P1;durP2;ratioP2;P2;SDS_P1;SDS_P2;PMS_P1;PMS_P2;Temp;Humidity;BMP_temperature;BMP_pressure;BME280_temperature;BME280_humidity;BME280_pressure;Samples;Min_cycle;Max_cycle;Signal;HPM_P1;HPM_P2
2024/01/23 00:01:14;;;;;;;13.70;4.30;;;7.90;99.90;;;;;;5111440;28;20515;-81
2024/01/23 00:03:42;;;;;;;14.87;4.50;;;7.90;99.90;;;;;;5105371;28;20451;-82
2024/01/23 00:06:12;;;;;;;10.83;4.67;;;7.80;99.90;;;;;;5104309;28;20453;-82
2024/01/23 00:08:40;;;;;;;10.67;4.40;;;7.80;99.90;;;;;;5103910;28;20833;-81
2024/01/23 00:11:09;;;;;;;13.13;4.17;;;7.80;99.90;;;;;;5104786;28;20452;-81
2024/01/23 00:13:37;;;;;;;11.17;3.37;;;7.80;99.90;;;;;;5104032;28;20448;-82
2024/01/23 00:16:06;;;;;;;14.63;5.17;;;7.80;99.90;;;;;;5105120;28;20475;-81
2024/01/23 00:18:34;;;;;;;13.27;4.50;;;7.80;99.90;;;;;;5103850;28;20921;-82
2024/01/23 00:21:03;;;;;;;13.13;3.93;;;7.80;99.90;;;;;;5098115;28;20808;-81
2024/01/23 00:23:33;;;;;;;11.47;4.60;;;7.80;99.90;;;;;;5096656;28;21051;-82
2024/01/23 00:26:01;;;;;;;14.40;4.80;;;7.80;99.90;;;;;;5095989;28;20448;-80
2024/01/23 00:28:29;;;;;;;12.03;3.97;;;7.80;99.90;;;;;;5096196;28;20490;-81
2024/01/23 00:30:58;;;;;;;10.37;3.87;;;7.80;99.90;;;;;;5096284;28;20449;-80
2024/01/23 00:33:26;;;;;;;9.83;3.57;;;7.80;99.90;;;;;;5096081;28;20943;-82
2024/01/23 00:35:54;;;;;;;9.80;4.07;;;7.80;99.90;;;;;;5095933;28;20859;-83
2024/01/23 00:38:23;;;;;;;8.93;3.60;;;7.80;99.90;;;;;;5095781;28;20456;-80
2024/01/23 00:40:52;;;;;;;9.67;3.90;;;7.80;99.90;;;;;;5096743;28;20443;-81
2024/01/23 00:43:21;;;;;;;12.80;4.03;;;7.80;99.90;;;;;;5095300;28;20471;-81
2024/01/23 00:45:50;;;;;;;12.73;4.33;;;7.80;99.90;;;;;;5095695;28;20440;-81
2024/01/23 00:48:19;;;;;;;12.50;4.30;;;7.80;99.90;;;;;;5096951;28;20460;-81
2024/01/23 00:50:47;;;;;;;16.10;4.23;;;7.80;99.90;;;;;;5095978;28;20447;-80
2024/01/23 00:53:16;;;;;;;10.30;3.57;;;7.80;99.90;;;;;;5095899;28;20558;-82
2024/01/23 00:55:44;;;;;;;7.30;3.60;;;7.80;99.90;;;;;;5095962;28;20483;-81
2024/01/23 00:58:15;;;;;;;11.30;3.97;;;7.80;99.90;;;;;;5095907;28;20454;-80
2024/01/23 01:00:44;;;;;;;9.57;2.83;;;7.80;99.90;;;;;;5095962;28;20455;-82
2024/01/23 01:03:13;;;;;;;8.50;2.40;;;7.80;99.90;;;;;;5095444;28;20550;-81
2024/01/23 01:05:42;;;;;;;5.30;2.13;;;7.70;99.90;;;;;;5095376;28;20436;-82
2024/01/23 01:08:12;;;;;;;8.80;2.83;;;7.60;99.90;;;;;;5095476;28;20451;-82
2024/01/23 01:10:40;;;;;;;11.27;3.50;;;7.60;99.90;;;;;;5094953;28;20470;-81
2024/01/23 01:13:09;;;;;;;10.10;3.50;;;7.60;99.90;;;;;;5095178;28;20506;-82
2024/01/23 01:15:39;;;;;;;10.30;4.00;;;7.60;99.90;;;;;;5094863;28;20455;-82
2024/01/23 01:18:07;;;;;;;14.93;4.07;;;7.60;99.90;;;;;;5095384;28;20448;-81
2024/01/23 01:20:36;;;;;;;11.40;3.70;;;7.60;99.90;;;;;;5096335;28;20523;-79
2024/01/23 01:23:05;;;;;;;10.83;3.70;;;7.60;99.90;;;;;;5094588;28;21010;-80
2024/01/23 01:25:34;;;;;;;10.23;4.27;;;7.70;99.90;;;;;;5095963;28;20431;-81
2024/01/23 01:28:03;;;;;;;14.33;3.40;;;7.70;99.90;;;;;;5095136;28;20447;-81
2024/01/23 01:30:31;;;;;;;11.33;4.17;;;7.70;99.90;;;;;;5094678;28;20456;-78
2024/01/23 01:33:01;;;;;;;9.97;3.93;;;7.70;99.90;;;;;;5095230;28;20472;-81
2024/01/23 01:35:29;;;;;;;9.30;3.57;;;7.70;99.90;;;;;;5094897;28;20952;-80
2024/01/23 01:37:57;;;;;;;12.30;3.93;;;7.70;99.90;;;;;;5094807;28;20456;-81
2024/01/23 01:40:26;;;;;;;9.07;4.07;;;7.70;99.90;;;;;;5094424;28;20462;-81
2024/01/23 01:42:54;;;;;;;13.10;4.00;;;7.70;99.90;;;;;;5094618;28;20885;-84
2024/01/23 01:45:22;;;;;;;17.27;4.43;;;7.70;99.90;;;;;;5094710;28;20440;-82
2024/01/23 01:47:51;;;;;;;10.90;4.07;;;7.60;99.90;;;;;;5094383;28;20459;-80
2024/01/23 01:50:21;;;;;;;9.83;3.13;;;7.60;99.90;;;;;;5094689;28;20451;-80
2024/01/23 01:52:50;;;;;;;14.17;4.20;;;7.60;99.90;;;;;;5094631;28;20525;-82
2024/01/23 01:55:19;;;;;;;9.70;3.30;;;7.60;99.90;;;;;;5094288;28;20493;-81
2024/01/23 01:57:47;;;;;;;13.57;4.17;;;7.60;99.90;;;;;;5094380;28;20486;-79
2024/01/23 02:00:16;;;;;;;10.90;3.90;;;7.60;99.90;;;;;;5094664;28;20447;-80
2024/01/23 02:02:47;;;;;;;10.50;3.60;;;7.60;99.90;;;;;;5094140;28;20478;-78
2024/01/23 02:05:16;;;;;;;11.50;4.37;;;7.60;99.90;;;;;;5094551;28;20510;-80
2024/01/23 02:07:47;;;;;;;10.20;3.80;;;7.60;99.90;;;;;;5094407;28;20811;-79
2024/01/23 02:10:16;;;;;;;14.83;4.60;;;7.60;99.90;;;;;;5094093;28;20819;-80
2024/01/23 02:12:44;;;;;;;11.40;4.63;;;7.60;99.90;;;;;;5093756;28;20510;-81
2024/01/23 02:15:13;;;;;;;11.93;3.90;;;7.60;99.90;;;;;;5096520;28;20487;-82
2024/01/23 02:17:41;;;;;;;8.77;4.13;;;7.60;99.90;;;;;;5096682;28;20512;-82
2024/01/23 02:20:11;;;;;;;13.17;4.10;;;7.60;99.90;;;;;;5099891;28;20444;-81
2024/01/23 02:22:39;;;;;;;11.80;4.10;;;7.60;99.90;;;;;;5099731;28;20468;-81
2024/01/23 02:25:09;;;;;;;13.27;3.97;;;7.60;99.90;;;;;;5096706;28;20454;-81
2024/01/23 02:27:37;;;;;;;12.37;4.40;;;7.60;99.90;;;;;;5094982;28;20456;-81
2024/01/23 02:30:07;;;;;;;11.10;3.80;;;7.60;99.90;;;;;;5095192;28;20542;-82
2024/01/23 02:32:36;;;;;;;11.10;4.30;;;7.60;99.90;;;;;;5095005;28;21003;-81
2024/01/23 02:35:05;;;;;;;12.63;3.90;;;7.60;99.90;;;;;;5099001;28;20437;-81
2024/01/23 02:37:33;;;;;;;9.47;3.70;;;7.60;99.90;;;;;;5097553;28;20452;-80
2024/01/23 02:40:01;;;;;;;11.30;3.67;;;7.60;99.90;;;;;;5097600;28;20483;-78
2024/01/23 02:42:31;;;;;;;9.73;3.60;;;7.60;99.90;;;;;;5097629;28;20823;-82
2024/01/23 02:44:59;;;;;;;10.50;4.73;;;7.60;99.90;;;;;;5098722;28;20535;-81
2024/01/23 02:47:28;;;;;;;10.30;3.47;;;7.60;99.90;;;;;;5099186;28;20480;-81
2024/01/23 02:49:56;;;;;;;11.60;3.53;;;7.60;99.90;;;;;;5098204;28;20438;-81
2024/01/23 02:52:25;;;;;;;13.90;4.00;;;7.60;99.90;;;;;;5099842;28;20455;-81
2024/01/23 02:54:53;;;;;;;13.37;4.20;;;7.60;99.90;;;;;;5099124;28;20451;-83
2024/01/23 02:57:21;;;;;;;12.47;4.10;;;7.60;99.90;;;;;;5098060;28;20537;-79
2024/01/23 02:59:51;;;;;;;10.13;4.07;;;7.60;99.90;;;;;;5098201;28;20448;-82
2024/01/23 03:02:20;;;;;;;14.60;3.97;;;7.60;99.90;;;;;;5097700;28;20521;-82
2024/01/23 03:04:48;;;;;;;10.60;4.27;;;7.60;99.90;;;;;;5097504;28;20539;-79
2024/01/23 03:07:17;;;;;;;9.93;3.50;;;7.60;99.90;;;;;;5097650;28;20452;-81
2024/01/23 03:09:46;;;;;;;16.60;4.27;;;7.60;99.90;;;;;;5098937;28;20432;-79
2024/01/23 03:12:16;;;;;;;10.03;3.87;;;7.60;99.90;;;;;;5097637;28;21065;-81
2024/01/23 03:14:44;;;;;;;14.50;4.30;;;7.60;99.90;;;;;;5097919;28;20949;-82
2024/01/23 03:17:15;;;;;;;13.30;5.40;;;7.50;99.90;;;;;;5097569;28;20539;-81
2024/01/23 03:19:44;;;;;;;11.97;4.30;;;7.60;99.90;;;;;;5097650;28;20483;-81
2024/01/23 03:22:13;;;;;;;12.73;3.67;;;7.60;99.90;;;;;;5097692;28;21045;-80
2024/01/23 03:24:41;;;;;;;10.00;3.60;;;7.50;99.90;;;;;;5097524;28;20471;-82
2024/01/23 03:27:10;;;;;;;11.80;4.20;;;7.60;99.90;;;;;;5098527;28;20441;-81
2024/01/23 03:29:42;;;;;;;13.23;4.10;;;7.60;99.90;;;;;;5097769;28;20490;-80
2024/01/23 03:32:11;;;;;;;13.27;4.43;;;7.60;99.90;;;;;;5097060;28;20987;-82
2024/01/23 03:34:41;;;;;;;12.93;4.93;;;7.50;99.90;;;;;;5096918;28;20445;-82
2024/01/23 03:37:09;;;;;;;13.87;4.73;;;7.60;99.90;;;;;;5097658;28;20440;-82
2024/01/23 03:39:38;;;;;;;11.20;4.43;;;7.60;99.90;;;;;;5097529;28;20435;-80
2024/01/23 03:42:06;;;;;;;10.60;4.30;;;7.60;99.90;;;;;;5096353;28;20565;-81
2024/01/23 03:44:34;;;;;;;12.83;4.00;;;7.60;99.90;;;;;;5096765;28;20559;-81
2024/01/23 03:47:03;;;;;;;12.70;4.33;;;7.60;99.90;;;;;;5097186;28;20444;-82
2024/01/23 03:49:32;;;;;;;15.40;3.80;;;7.50;99.90;;;;;;5096075;28;20488;-82
2024/01/23 03:52:01;;;;;;;15.80;4.93;;;7.50;99.90;;;;;;5097240;28;20452;-82
2024/01/23 03:54:30;;;;;;;13.87;4.30;;;7.50;99.90;;;;;;5095931;28;20535;-80
2024/01/23 03:56:58;;;;;;;15.47;5.13;;;7.50;99.90;;;;;;5095946;28;20928;-77
2024/01/23 03:59:26;;;;;;;15.57;5.73;;;7.50;99.90;;;;;;5096046;28;20463;-80
2024/01/23 04:01:55;;;;;;;10.70;4.10;;;7.50;99.90;;;;;;5095792;28;20475;-80
2024/01/23 04:04:23;;;;;;;13.10;4.80;;;7.50;99.90;;;;;;5095744;28;20478;-82
2024/01/23 04:06:51;;;;;;;16.50;4.33;;;7.50;99.90;;;;;;5095462;28;20828;-80
2024/01/23 04:09:21;;;;;;;20.73;5.67;;;7.50;99.90;;;;;;5095906;28;20529;-81
2024/01/23 04:11:50;;;;;;;14.00;4.60;;;7.50;99.90;;;;;;5095046;28;21017;-79
2024/01/23 04:14:18;;;;;;;11.67;4.87;;;7.50;99.90;;;;;;5095173;28;20457;-81
2024/01/23 04:16:46;;;;;;;14.70;4.87;;;7.50;99.90;;;;;;5095292;28;20502;-82
2024/01/23 04:19:14;;;;;;;14.50;4.60;;;7.50;99.90;;;;;;5096023;28;20783;-81
2024/01/23 04:21:43;;;;;;;15.57;4.63;;;7.50;99.90;;;;;;5095472;28;20834;-81
2024/01/23 04:24:11;;;;;;;12.87;5.03;;;7.50;99.90;;;;;;5094982;28;20884;-79
2024/01/23 04:26:46;;;;;;;14.63;5.07;;;7.50;99.90;;;;;;5094612;28;20448;-78
2024/01/23 04:29:15;;;;;;;13.77;5.43;;;7.50;99.90;;;;;;5096167;28;20413;-80
2024/01/23 04:31:43;;;;;;;12.40;4.57;;;7.50;99.90;;;;;;5096304;28;20452;-80
2024/01/23 04:34:11;;;;;;;12.03;4.53;;;7.50;99.90;;;;;;5094670;28;20526;-80
2024/01/23 04:36:40;;;;;;;14.60;5.20;;;7.50;99.90;;;;;;5094510;28;20444;-79
2024/01/23 04:39:08;;;;;;;17.27;6.00;;;7.50;99.90;;;;;;5094502;28;20459;-80
2024/01/23 04:41:37;;;;;;;15.87;5.30;;;7.50;99.90;;;;;;5094421;28;20530;-81
2024/01/23 04:44:06;;;;;;;16.10;5.20;;;7.50;99.90;;;;;;5094370;28;20471;-79
2024/01/23 04:46:34;;;;;;;12.63;4.97;;;7.50;99.90;;;;;;5094184;28;20526;-81
2024/01/23 04:49:03;;;;;;;11.00;4.90;;;7.50;99.90;;;;;;5094213;28;20535;-81
2024/01/23 04:51:31;;;;;;;15.87;5.50;;;7.50;99.90;;;;;;5093965;28;20452;-80
2024/01/23 04:53:59;;;;;;;13.63;5.00;;;7.50;99.90;;;;;;5094124;28;20444;-80
2024/01/23 04:56:27;;;;;;;21.53;6.67;;;7.50;99.90;;;;;;5093280;28;20487;-81
2024/01/23 04:58:56;;;;;;;14.50;5.10;;;7.50;99.90;;;;;;5094047;28;20451;-80
2024/01/23 05:01:25;;;;;;;13.20;5.67;;;7.50;99.90;;;;;;5095262;28;20514;-80
2024/01/23 05:03:54;;;;;;;12.37;5.20;;;7.50;99.90;;;;;;5095630;28;20532;-80
2024/01/23 05:06:22;;;;;;;14.63;4.97;;;7.50;99.90;;;;;;5094040;28;20458;-80
2024/01/23 05:08:50;;;;;;;13.23;4.90;;;7.50;99.90;;;;;;5095454;28;20957;-82
2024/01/23 05:11:19;;;;;;;14.23;5.37;;;7.50;99.90;;;;;;5099723;28;20439;-82
2024/01/23 05:13:47;;;;;;;11.67;4.40;;;7.50;99.90;;;;;;5097028;28;20515;-82
2024/01/23 05:16:15;;;;;;;13.23;5.20;;;7.50;99.90;;;;;;5095841;28;20448;-81
2024/01/23 05:18:45;;;;;;;16.70;5.40;;;7.50;99.90;;;;;;5095546;28;20535;-82
2024/01/23 05:21:14;;;;;;;20.07;6.63;;;7.50;99.90;;;;;;5094985;28;20452;-81
2024/01/23 05:23:42;;;;;;;17.60;5.63;;;7.50;99.90;;;;;;5095151;28;20461;-82
2024/01/23 05:26:10;;;;;;;16.67;5.40;;;7.50;99.90;;;;;;5095133;28;20669;-82
2024/01/23 05:28:39;;;;;;;15.83;5.77;;;7.50;99.90;;;;;;5095594;28;20499;-81
2024/01/23 05:31:07;;;;;;;14.90;5.97;;;7.50;99.90;;;;;;5095014;28;20535;-79
2024/01/23 05:33:35;;;;;;;15.40;5.00;;;7.50;99.90;;;;;;5095204;28;20878;-81
2024/01/23 05:36:06;;;;;;;20.67;7.03;;;7.50;99.90;;;;;;5095364;28;20864;-82
2024/01/23 05:38:35;;;;;;;15.50;5.70;;;7.50;99.90;;;;;;5094736;28;20473;-81
2024/01/23 05:41:04;;;;;;;13.50;4.80;;;7.50;99.90;;;;;;5096171;28;20500;-82
2024/01/23 05:43:32;;;;;;;21.70;6.17;;;7.50;99.90;;;;;;5094432;28;20486;-80
2024/01/23 05:46:02;;;;;;;12.70;5.23;;;7.50;99.90;;;;;;5094000;28;20470;-81
2024/01/23 05:48:30;;;;;;;17.63;6.20;;;7.50;99.90;;;;;;5094280;28;20466;-83
2024/01/23 05:50:59;;;;;;;17.50;6.13;;;7.50;99.90;;;;;;5094223;28;20512;-82
2024/01/23 05:53:28;;;;;;;12.60;5.60;;;7.50;99.90;;;;;;5094008;28;20460;-81
2024/01/23 05:55:57;;;;;;;11.50;5.17;;;7.50;99.90;;;;;;5094924;28;20447;-81
2024/01/23 05:58:25;;;;;;;20.17;5.60;;;7.50;99.90;;;;;;5095454;28;20520;-82
2024/01/23 06:00:53;;;;;;;13.27;6.20;;;7.50;99.90;;;;;;5093991;28;20456;-81
2024/01/23 06:03:21;;;;;;;17.00;5.40;;;7.50;99.90;;;;;;5095152;28;20492;-81
2024/01/23 06:05:49;;;;;;;16.33;5.93;;;7.50;99.90;;;;;;5093617;28;20832;-82
2024/01/23 06:08:18;;;;;;;20.63;6.37;;;7.60;99.90;;;;;;5094280;28;20444;-83
2024/01/23 06:10:47;;;;;;;14.50;5.07;;;7.60;99.90;;;;;;5093846;28;20448;-81
2024/01/23 06:13:17;;;;;;;22.73;7.73;;;7.50;99.90;;;;;;5093479;28;20478;-81
2024/01/23 06:15:46;;;;;;;17.10;5.80;;;7.60;99.90;;;;;;5093827;28;20786;-81
2024/01/23 06:18:14;;;;;;;19.50;6.40;;;7.60;99.90;;;;;;5095549;28;20444;-81
2024/01/23 06:20:43;;;;;;;15.90;5.53;;;7.50;99.90;;;;;;5093894;28;20468;-81
2024/01/23 06:23:12;;;;;;;20.43;6.37;;;7.60;99.90;;;;;;5094159;28;20520;-82
2024/01/23 06:25:40;;;;;;;20.53;6.83;;;7.50;99.90;;;;;;5094427;28;20829;-81
2024/01/23 06:28:10;;;;;;;15.57;5.87;;;7.50;99.90;;;;;;5095631;28;20828;-80
2024/01/23 06:30:38;;;;;;;17.43;6.60;;;7.50;99.90;;;;;;5094215;28;21004;-81
2024/01/23 06:33:06;;;;;;;18.50;7.23;;;7.50;99.90;;;;;;5093613;28;20478;-80
2024/01/23 06:35:36;;;;;;;22.10;6.10;;;7.50;99.90;;;;;;5094172;28;20455;-80
2024/01/23 06:38:04;;;;;;;16.20;6.83;;;7.50;99.90;;;;;;5094354;28;20482;-76
2024/01/23 06:40:32;;;;;;;19.80;7.27;;;7.50;99.90;;;;;;5093514;28;20502;-78
2024/01/23 06:43:01;;;;;;;16.33;6.10;;;7.50;99.90;;;;;;5093233;28;20494;-80
2024/01/23 06:45:30;;;;;;;19.23;6.40;;;7.50;99.90;;;;;;5093866;28;20478;-81
2024/01/23 06:47:58;;;;;;;16.43;6.13;;;7.40;99.90;;;;;;5093921;28;20512;-80
2024/01/23 06:50:29;;;;;;;20.47;6.97;;;7.50;99.90;;;;;;5093571;28;20455;-81
2024/01/23 06:52:58;;;;;;;21.03;6.70;;;7.50;99.90;;;;;;5095269;28;20875;-81
2024/01/23 06:55:26;;;;;;;20.93;6.20;;;7.50;99.90;;;;;;5093561;28;20455;-78
2024/01/23 06:57:54;;;;;;;18.03;6.57;;;7.40;99.90;;;;;;5095028;28;20434;-79
2024/01/23 07:00:23;;;;;;;19.40;6.97;;;7.50;99.90;;;;;;5093538;28;20451;-77
2024/01/23 07:02:52;;;;;;;18.20;6.30;;;7.50;99.90;;;;;;5093383;28;20558;-78
2024/01/23 07:05:20;;;;;;;16.70;7.20;;;7.50;99.90;;;;;;5093289;28;20468;-76
2024/01/23 07:07:49;;;;;;;21.40;7.40;;;7.50;99.90;;;;;;5093013;28;20450;-79
2024/01/23 07:10:17;;;;;;;23.03;6.57;;;7.50;99.90;;;;;;5093052;28;20539;-80
2024/01/23 07:12:45;;;;;;;20.67;6.23;;;7.50;99.90;;;;;;5092879;28;20981;-78
2024/01/23 07:15:14;;;;;;;17.77;6.70;;;7.50;99.90;;;;;;5092967;28;20441;-76
2024/01/23 07:17:42;;;;;;;19.97;6.93;;;7.50;99.90;;;;;;5093299;28;20452;-79
2024/01/23 07:20:12;;;;;;;20.17;7.23;;;7.50;99.90;;;;;;5095408;28;20444;-79
2024/01/23 07:22:40;;;;;;;21.40;6.57;;;7.50;99.90;;;;;;5096653;28;20517;-80
2024/01/23 07:25:09;;;;;;;19.77;7.00;;;7.50;99.90;;;;;;5098368;28;20443;-78
2024/01/23 07:27:40;;;;;;;18.60;7.67;;;7.40;99.90;;;;;;5102949;28;20430;-81
2024/01/23 07:30:09;;;;;;;24.63;8.30;;;7.50;99.90;;;;;;5100606;28;20436;-80
2024/01/23 07:32:38;;;;;;;19.33;7.20;;;7.50;99.90;;;;;;5099369;28;20528;-79
2024/01/23 07:35:07;;;;;;;22.13;7.03;;;7.40;99.90;;;;;;5097999;28;20461;-81
2024/01/23 07:37:36;;;;;;;22.07;6.40;;;7.40;99.90;;;;;;5097873;28;20458;-81
2024/01/23 07:40:06;;;;;;;23.63;7.10;;;7.40;99.90;;;;;;5097546;28;20450;-80
2024/01/23 07:42:33;;;;;;;21.03;7.10;;;7.40;99.90;;;;;;5097209;28;20466;-80
2024/01/23 07:45:01;;;;;;;23.70;7.07;;;7.40;99.90;;;;;;5098917;28;20512;-80
2024/01/23 07:47:29;;;;;;;18.70;7.03;;;7.40;99.90;;;;;;5096786;28;20507;-80
2024/01/23 07:49:58;;;;;;;27.50;7.40;;;7.40;99.90;;;;;;5096998;28;20450;-82
2024/01/23 07:52:31;;;;;;;19.53;7.20;;;7.40;99.90;;;;;;5098266;28;20459;-81
2024/01/23 07:55:01;;;;;;;23.43;7.20;;;7.40;99.90;;;;;;5096573;28;20909;-81
2024/01/23 07:57:29;;;;;;;20.53;7.03;;;7.40;99.90;;;;;;5096611;28;20445;-81
2024/01/23 07:59:58;;;;;;;23.87;8.67;;;7.40;99.90;;;;;;5096540;28;20488;-82
2024/01/23 08:02:26;;;;;;;19.37;6.80;;;7.50;99.90;;;;;;5096183;28;20479;-82
2024/01/23 08:04:55;;;;;;;17.23;6.73;;;7.50;99.90;;;;;;5096103;28;20451;-81
2024/01/23 08:07:23;;;;;;;16.77;7.50;;;7.50;99.90;;;;;;5096069;28;20478;-80
2024/01/23 08:09:51;;;;;;;18.73;6.83;;;7.50;99.90;;;;;;5098286;28;20432;-80
2024/01/23 08:12:21;;;;;;;19.63;7.20;;;7.50;99.90;;;;;;5098165;28;20455;-81
2024/01/23 08:14:50;;;;;;;24.57;6.73;;;7.50;99.90;;;;;;5096425;28;20632;-80
2024/01/23 08:17:18;;;;;;;25.10;6.70;;;7.50;99.90;;;;;;5096381;28;20470;-82
2024/01/23 08:19:46;;;;;;;22.97;7.30;;;7.50;99.90;;;;;;5096130;28;20462;-80
2024/01/23 08:22:15;;;;;;;19.80;7.70;;;7.50;99.90;;;;;;5095995;28;20461;-81
2024/01/23 08:24:43;;;;;;;22.40;7.47;;;7.50;99.90;;;;;;5096525;28;20445;-80
2024/01/23 08:27:12;;;;;;;22.93;8.13;;;7.60;99.90;;;;;;5095576;28;20851;-81
2024/01/23 08:29:42;;;;;;;20.97;6.90;;;7.60;99.90;;;;;;5095161;28;20443;-77
2024/01/23 08:32:10;;;;;;;25.90;7.87;;;7.60;99.90;;;;;;5095225;28;20504;-79
2024/01/23 08:34:38;;;;;;;20.60;7.00;;;7.60;99.90;;;;;;5095195;28;20505;-80
2024/01/23 08:37:07;;;;;;;20.67;7.20;;;7.70;99.90;;;;;;5095843;28;20892;-79
2024/01/23 08:39:35;;;;;;;26.17;7.37;;;7.70;99.90;;;;;;5095381;28;20859;-79
2024/01/23 08:42:05;;;;;;;26.63;8.50;;;7.70;99.90;;;;;;5094780;28;20469;-80
2024/01/23 08:44:33;;;;;;;22.90;7.83;;;7.70;99.90;;;;;;5094600;28;20439;-80
2024/01/23 08:47:04;;;;;;;20.10;7.30;;;7.70;99.90;;;;;;5094386;28;20905;-80
2024/01/23 08:49:32;;;;;;;25.90;8.60;;;7.80;99.90;;;;;;5094465;28;20448;-80
2024/01/23 08:52:01;;;;;;;23.80;7.83;;;7.80;99.90;;;;;;5094109;28;20471;-79
2024/01/23 08:54:29;;;;;;;19.50;7.77;;;7.80;99.90;;;;;;5094377;28;20455;-79
2024/01/23 08:56:58;;;;;;;26.33;8.60;;;7.80;99.90;;;;;;5095398;28;20536;-79
2024/01/23 08:59:27;;;;;;;29.53;8.93;;;7.80;99.90;;;;;;5095691;28;20999;-80
2024/01/23 09:01:56;;;;;;;28.40;8.60;;;7.80;99.90;;;;;;5097291;28;20500;-80
2024/01/23 09:04:25;;;;;;;26.83;8.13;;;7.80;99.90;;;;;;5094179;28;20445;-79
2024/01/23 09:06:54;;;;;;;26.83;8.83;;;7.80;99.90;;;;;;5094346;28;20475;-80
2024/01/23 09:09:22;;;;;;;24.07;7.80;;;7.90;99.90;;;;;;5094210;28;20975;-79
2024/01/23 09:11:50;;;;;;;24.33;7.80;;;7.80;99.90;;;;;;5094106;28;20468;-80
2024/01/23 09:14:19;;;;;;;22.80;8.10;;;7.80;99.90;;;;;;5094236;28;20869;-79
2024/01/23 09:16:47;;;;;;;30.97;9.00;;;7.90;99.90;;;;;;5095451;28;20493;-79
2024/01/23 09:19:16;;;;;;;27.93;8.77;;;7.80;99.90;;;;;;5093939;28;20534;-78
2024/01/23 09:21:45;;;;;;;26.70;9.20;;;7.90;99.90;;;;;;5094486;28;20483;-80
2024/01/23 09:24:14;;;;;;;30.33;8.80;;;7.90;99.90;;;;;;5095339;28;20432;-79
2024/01/23 09:26:43;;;;;;;28.70;8.93;;;7.90;99.90;;;;;;5095077;28;20477;-81
2024/01/23 09:29:11;;;;;;;28.13;7.80;;;7.90;99.90;;;;;;5096151;28;20933;-80
2024/01/23 09:31:45;;;;;;;27.30;9.83;;;7.90;99.90;;;;;;5095960;28;20456;-78
2024/01/23 09:34:13;;;;;;;30.33;9.20;;;7.90;99.90;;;;;;5094489;28;20440;-79
2024/01/23 09:36:42;;;;;;;26.10;9.10;;;7.90;99.90;;;;;;5095163;28;20448;-80
2024/01/23 09:39:14;;;;;;;21.27;7.67;;;7.90;99.90;;;;;;5094464;28;20448;-79
2024/01/23 09:41:46;;;;;;;27.53;8.63;;;7.90;99.90;;;;;;5095059;28;20456;-80
2024/01/23 09:44:16;;;;;;;25.40;7.80;;;7.90;99.90;;;;;;5094981;28;20445;-79
2024/01/23 09:46:45;;;;;;;20.40;7.37;;;8.00;99.90;;;;;;5097417;28;20468;-80
2024/01/23 09:49:15;;;;;;;23.33;8.63;;;8.00;99.90;;;;;;5095328;28;20440;-80
2024/01/23 09:51:47;;;;;;;21.57;7.20;;;8.00;99.90;;;;;;5095918;28;20991;-79
2024/01/23 09:54:17;;;;;;;27.90;8.03;;;8.00;99.90;;;;;;5095800;28;20420;-77
2024/01/23 09:56:46;;;;;;;21.33;7.60;;;8.00;99.90;;;;;;5095339;28;20436;-80
2024/01/23 09:59:14;;;;;;;19.97;7.73;;;8.00;99.90;;;;;;5094005;28;20448;-80
2024/01/23 10:01:43;;;;;;;22.60;7.67;;;8.00;99.90;;;;;;5094310;28;20892;-80
2024/01/23 10:04:15;;;;;;;24.77;7.57;;;8.00;99.90;;;;;;5093846;28;20824;-82
2024/01/23 10:06:44;;;;;;;22.40;7.50;;;8.00;99.90;;;;;;5093824;28;20444;-80
2024/01/23 10:09:13;;;;;;;27.13;8.67;;;8.00;99.90;;;;;;5093468;28;20448;-78
2024/01/23 10:11:42;;;;;;;24.60;7.80;;;8.00;99.90;;;;;;5093407;28;20464;-78
2024/01/23 10:14:10;;;;;;;20.10;8.33;;;8.00;99.90;;;;;;5093611;28;20448;-79
2024/01/23 10:16:39;;;;;;;28.63;7.77;;;8.10;99.90;;;;;;5093421;28;20462;-78
2024/01/23 10:19:10;;;;;;;25.60;8.27;;;8.10;99.90;;;;;;5093581;28;20453;-79
2024/01/23 10:21:39;;;;;;;23.30;8.47;;;8.10;99.90;;;;;;5093806;28;21076;-77
2024/01/23 10:24:08;;;;;;;25.97;7.83;;;8.10;99.90;;;;;;5095673;28;20476;-80
2024/01/23 10:26:37;;;;;;;31.23;8.37;;;8.10;99.90;;;;;;5093464;28;20448;-80
2024/01/23 10:29:08;;;;;;;26.00;8.20;;;8.10;99.90;;;;;;5093397;28;20449;-79
2024/01/23 10:31:38;;;;;;;25.57;7.73;;;8.10;99.90;;;;;;5093288;28;20467;-80
2024/01/23 10:34:06;;;;;;;24.03;8.43;;;8.10;99.90;;;;;;5093255;28;20853;-81
2024/01/23 10:36:34;;;;;;;23.20;7.57;;;8.10;99.90;;;;;;5092961;28;20472;-78
2024/01/23 10:39:04;;;;;;;28.23;8.70;;;8.10;99.90;;;;;;5094571;28;20436;-78
2024/01/23 10:41:34;;;;;;;28.43;9.17;;;8.20;99.90;;;;;;5092922;28;20971;-79
2024/01/23 10:44:03;;;;;;;25.00;8.93;;;8.20;99.90;;;;;;5093026;28;20444;-80
2024/01/23 10:46:35;;;;;;;27.20;8.60;;;8.20;99.90;;;;;;5092413;28;20835;-80
2024/01/23 10:49:03;;;;;;;20.23;7.87;;;8.20;99.90;;;;;;5092569;28;20513;-80
2024/01/23 10:51:35;;;;;;;20.37;8.17;;;8.20;99.90;;;;;;5092445;28;20444;-79
2024/01/23 10:54:09;;;;;;;24.50;7.90;;;8.20;99.90;;;;;;5095134;28;20458;-80
2024/01/23 10:56:44;;;;;;;29.87;8.73;;;8.20;99.90;;;;;;5096537;28;20450;-80
2024/01/23 10:59:18;;;;;;;24.67;8.60;;;8.20;99.90;;;;;;5097927;28;20443;-79
2024/01/23 11:01:54;;;;;;;23.73;8.80;;;8.30;99.90;;;;;;5096140;28;20608;-79
2024/01/23 11:04:23;;;;;;;25.40;8.17;;;8.30;99.90;;;;;;5096365;28;20451;-80
2024/01/23 11:06:59;;;;;;;24.00;8.00;;;8.30;99.90;;;;;;5096148;28;20949;-78
2024/01/23 11:09:37;;;;;;;21.33;7.70;;;8.30;99.90;;;;;;5096484;28;20856;-79
2024/01/23 11:12:17;;;;;;;25.70;7.67;;;8.30;99.90;;;;;;5096157;28;20476;-79
2024/01/23 11:14:51;;;;;;;17.40;7.43;;;8.30;99.90;;;;;;5097759;28;20483;-80
2024/01/23 11:17:23;;;;;;;23.57;7.60;;;8.30;99.90;;;;;;5096386;28;20443;-80
2024/01/23 11:20:07;;;;;;;20.73;7.80;;;8.30;99.90;;;;;;5095834;28;20467;-79
2024/01/23 11:22:37;;;;;;;27.30;8.80;;;8.40;99.90;;;;;;5095763;28;21035;-77
2024/01/23 11:25:06;;;;;;;19.47;6.93;;;8.40;99.90;;;;;;5097422;28;20528;-79
2024/01/23 11:27:36;;;;;;;24.20;7.50;;;8.40;99.90;;;;;;5095749;28;20566;-80
2024/01/23 11:30:09;;;;;;;22.40;6.60;;;8.40;99.90;;;;;;5096874;28;20444;-79
2024/01/23 11:32:39;;;;;;;22.60;7.77;;;8.40;99.90;;;;;;5095596;28;20511;-80
2024/01/23 11:35:11;;;;;;;24.90;7.37;;;8.40;99.90;;;;;;5095945;28;20460;-81
2024/01/23 11:37:46;;;;;;;22.40;7.60;;;8.40;99.90;;;;;;5095888;28;20454;-76
2024/01/23 11:40:42;;;;;;;24.10;8.73;;;8.40;99.90;;;;;;5095616;28;20448;-79
2024/01/23 11:43:24;;;;;;;16.10;5.97;;;8.40;99.90;;;;;;5096306;28;20482;-80
2024/01/23 11:45:52;;;;;;;21.90;7.80;;;8.40;99.90;;;;;;5096839;28;20527;-80
2024/01/23 11:48:22;;;;;;;24.53;7.43;;;8.40;99.90;;;;;;5097666;28;20467;-80
2024/01/23 11:50:55;;;;;;;17.90;7.00;;;8.40;99.90;;;;;;5096959;28;20440;-80
2024/01/23 11:53:26;;;;;;;17.10;7.73;;;8.40;99.90;;;;;;5095728;28;20472;-79
2024/01/23 11:55:54;;;;;;;23.60;7.63;;;8.40;99.90;;;;;;5097105;28;20847;-80
2024/01/23 11:58:22;;;;;;;20.93;7.37;;;8.50;99.90;;;;;;5095506;28;20468;-80
2024/01/23 12:00:50;;;;;;;18.23;7.87;;;8.50;99.90;;;;;;5095295;28;20949;-80
2024/01/23 12:03:21;;;;;;;25.27;7.97;;;8.50;99.90;;;;;;5096997;28;20468;-80
2024/01/23 12:05:53;;;;;;;22.87;7.63;;;8.50;99.90;;;;;;5100237;28;20447;-81
2024/01/23 12:08:23;;;;;;;23.67;7.07;;;8.50;99.90;;;;;;5096782;28;20550;-81
2024/01/23 12:10:51;;;;;;;20.93;7.73;;;8.50;99.90;;;;;;5097755;28;20449;-81
2024/01/23 12:13:23;;;;;;;25.53;7.40;;;8.50;99.90;;;;;;5098112;28;20483;-81
2024/01/23 12:15:52;;;;;;;23.37;6.97;;;8.50;99.90;;;;;;5096443;28;20502;-80
2024/01/23 12:18:22;;;;;;;22.07;7.43;;;8.50;99.90;;;;;;5096014;28;20446;-79
2024/01/23 12:20:54;;;;;;;21.43;8.07;;;8.50;99.90;;;;;;5096273;28;20444;-81
2024/01/23 12:23:24;;;;;;;21.90;8.20;;;8.50;99.90;;;;;;5095868;28;20472;-80
2024/01/23 12:25:52;;;;;;;19.03;7.00;;;8.50;99.90;;;;;;5095888;28;20842;-81
2024/01/23 12:28:21;;;;;;;17.73;6.97;;;8.50;99.90;;;;;;5096700;28;20496;-79
2024/01/23 12:30:49;;;;;;;19.53;6.67;;;8.50;99.90;;;;;;5096818;28;20501;-82
2024/01/23 12:33:19;;;;;;;20.10;7.93;;;8.50;99.90;;;;;;5096636;28;20464;-81
2024/01/23 12:35:48;;;;;;;22.40;7.60;;;8.50;99.90;;;;;;5096089;28;20506;-80
2024/01/23 12:38:18;;;;;;;22.90;6.77;;;8.60;99.90;;;;;;5095952;28;20452;-80
2024/01/23 12:40:48;;;;;;;18.53;6.30;;;8.60;99.90;;;;;;5095736;28;20487;-78
2024/01/23 12:43:17;;;;;;;28.13;7.80;;;8.60;99.90;;;;;;5097839;28;20456;-79
2024/01/23 12:45:51;;;;;;;20.20;6.63;;;8.60;99.90;;;;;;5095860;28;20557;-79
2024/01/23 12:48:21;;;;;;;20.50;7.10;;;8.60;99.90;;;;;;5096746;28;20459;-80
2024/01/23 12:50:50;;;;;;;30.20;8.10;;;8.60;99.90;;;;;;5095918;28;20428;-79
2024/01/23 12:53:19;;;;;;;22.80;7.27;;;8.60;99.90;;;;;;5095758;28;20486;-81
2024/01/23 12:55:54;;;;;;;15.53;6.67;;;8.60;99.90;;;;;;5095347;28;20436;-80
2024/01/23 12:58:22;;;;;;;18.80;6.93;;;8.60;99.90;;;;;;5095822;28;20429;-82